Gran Canaria > ESTACION METEOROLÓGICA El Risco - Agaete

DATOS ACTUALES Online

Ultima actulizacion 11 minutos

20.7 ºC

Temperatura

59

Humedad (%)

1004.52

Presión (mb)

0

Precipitación (mm)

17.6 W

Viento (Km/h)

DATOS DIARIOS

Temperatura últimas 24 horas (ºC)

Humedad últimas 24 horas (%)

Presión atmosférica últimas 24 horas (mb)

Precipitaciones últimas 23 horas (mm)

Viento últimas 24 horas (Km/h)

Hora Temperatura (°C) ºC Precipitación (mm) mm Presión (mb) mb Humedad (%) % Viento (Km/h) km/h
29 - 01:00 19 0 1005 63 7.4 SO
29 - 02:00 18.9 0 1005 64 6.4 O
29 - 03:00 18.4 0 1004 63 7.5 O
29 - 04:00 18.1 0 1004 63 8 SO
29 - 05:00 18 0 1004 63 7.7 O
29 - 06:00 18 0 1004 62 11.3 S
29 - 07:00 18 0 1004 62 6.5 O
29 - 08:00 18.7 0 1005 61 9.8 O
29 - 09:00 21.3 0 1005 57 10.8 NW
29 - 10:00 21.1 0 1005 60 22.2 W
29 - 11:00 21.1 0 1005 62 24.9 W
29 - 12:00 21.7 0 1005 60 26.6 NW
29 - 13:00 22.4 0 1004 58 33.4 NW
29 - 14:00 22.3 0 1004 58 30.3 W
29 - 15:00 21.9 0 1004 61 28 W
29 - 16:00 21.5 0 1004 62 24.7 W
29 - 17:00 21.2 0 1004 61 32.9 W
29 - 18:00 21.2 0 1003 59 29.6 NW
29 - 19:00 21.3 0 1004 58 21 NW
29 - 20:00 20.5 0 1004 62 23 NW
29 - 21:00 20.8 0 1004 60 11.8 NO
29 - 22:00 20.7 0 1004 61 9.1 O
29 - 23:00 20.9 0 1004 59 15.1 O
30 - 00:00 20.7 0 1005 59 17.6 W
30 - 01:00
Apalmet utiliza cookies propias y de terceros para mejorar la usabilidad y la experiencia web. Política de cookies.